Mina, Pennsylvania
Current Conditions -  °F | °C
As of 10:56 AM on Monday 24 Nov 2014 (Local Time) from KELZ Reporting Station
Overcast Overcast  
Wind Chill: 60°   Ceiling: 3600
Heat Index: 60°   Visibility: 10mi
Dew Point: 49°   Wind: 16mph
Humidity: 67%   Direction: 190°S
Pressure: 29.43"   Gusts: 29mph
Location:  41.7605°N, 77.9728°W
Report Text: KELZ 241556Z AUTO 19014G25KT 10SM SCT026 BKN036 OVC050 16/09 A2943 RMK AO2 PK WND 18028/1512 SLP964 T01560094
Loading
Personal Weather Stations






























Interactive Weather Map New forecast layout! Learn more

10-Day Weather Forecast

Advertisements
Track Severe Weather on mobile